بلغراد, Serbia

03:46 PM CET on لبراêر 28, 2017 (GMT +0100)
Beograd-Karaburma | | Change Station

Elev 355 ft 44.81 °N, 20.53 °E | Updated 1 minute ago

صافية
صافية
73.6 °F
Feels Like 77 °F
N
7.0
ريح متغير ريح from جنوب غربی
Gusts 10.0 mph

هذا اليوم
High -- | Low -- °F
--% Chance of Precip.
Yesterday
High -- | Low -- °F
Precip. -- في
الضغط 29.71 في
وضوح الرؤية -9999.0 أميال
سحابات
مؤشر الحرارة 77 °F
نقطة الندى 46 °F
الرطوبة 37%
Rainfall 0.00 في
عمق الثلج Not available.
6:17 AM 5:24 PM
الهلال الأول, 5% visible
METAR LYBE 281430Z 20009KT CAVOK 22/04 Q1006 NOSIG
الضغط 29.71 في
وضوح الرؤية -9999.0 أميال
سحابات
مؤشر الحرارة 77 °F
نقطة الندى 46 °F
الرطوبة 37%
Rainfall 0.00 في
عمق الثلج Not available.
6:17 AM 5:24 PM
الهلال الأول, 5% visible
METAR LYBE 281430Z 20009KT CAVOK 22/04 Q1006 NOSIG

Get Your Daily Forecast Email!

Thanks for signing up!

Be on the lookout for a verification email in your inbox.

You'll start receiving the daily forecast at 8 AM.

×

10-Day Weather Forecast

×

Almanac

علم الفلك

Feb. 28, 2017 Rise Set
Actual Time
Civil Twilight
Nautical Twilight
Astronomical Twilight
قمر
Length Of Visible Light
طول الیوم
Tomorrow will be .
, % of the Moon is Illuminated

Today's Extremes

Country Highs Country Lows

Community

WunderPhotos

Upload Photos

1,962,540 photos uploaded!

WunderBlog® & News

Nearby

جودة الهواء

  جودة الهواء AQ Index Pollutant
Not available.

عمق الثلج

Station Depth Elevation

Earthquake Activity

City Distance Mag. Time & Date
Minimum magnitude displayed is 2.5.

Coastal Water Temperatures

مكان درجات الحرارة

Stations

Nearby Weather Stations

Station Location الحرارة رياح باردة نقطة الندى الرطوبة ريح Precip. Elev تحديث Type